Time;durP1;ratioP1;P1;durP2;ratioP2;P2;SDS_P1;SDS_P2;PMS_P1;PMS_P2;Temp;Humidity;BMP_temperature;BMP_pressure;BME280_temperature;BME280_humidity;BME280_pressure;Samples;Min_cycle;Max_cycle;Signal;HPM_P1;HPM_P2
2021/03/07 00:02:00;;;;;;;7.93;4.87;;;;;;;1.43;100.00;95625.94;5015501;28;20388;-86
2021/03/07 00:04:28;;;;;;;5.23;4.73;;;;;;;1.35;100.00;95682.66;5015584;28;20223;-86
2021/03/07 00:06:54;;;;;;;4.60;4.20;;;;;;;1.31;100.00;95718.31;5015689;28;20227;-86
2021/03/07 00:09:21;;;;;;;5.90;5.23;;;;;;;1.30;100.00;95721.03;5015601;28;20200;-86
2021/03/07 00:11:48;;;;;;;11.30;8.00;;;;;;;1.29;100.00;95745.28;5015249;28;20239;-86
2021/03/07 00:14:15;;;;;;;9.33;8.00;;;;;;;1.43;100.00;95797.66;5015220;28;20207;-86
2021/03/07 00:16:42;;;;;;;4.33;4.03;;;;;;;1.59;100.00;95867.31;5015179;28;20210;-86
2021/03/07 00:19:09;;;;;;;6.07;4.03;;;;;;;1.44;100.00;95948.69;5015510;28;20547;-86
2021/03/07 00:21:37;;;;;;;5.77;4.73;;;;;;;1.50;100.00;95989.69;5015502;28;20571;-85
2021/03/07 00:24:04;;;;;;;5.13;4.63;;;;;;;1.45;100.00;96017.66;5015184;28;20755;-86
2021/03/07 00:26:31;;;;;;;4.50;4.10;;;;;;;1.49;100.00;96047.63;5014585;28;20399;-86
2021/03/07 00:28:58;;;;;;;4.73;4.33;;;;;;;1.51;100.00;96088.94;5014982;28;20235;-86
2021/03/07 00:31:25;;;;;;;4.90;4.40;;;;;;;1.35;100.00;96121.09;5015361;28;20668;-86
2021/03/07 00:33:52;;;;;;;4.87;4.00;;;;;;;1.35;100.00;96125.41;5014578;28;20286;-86
2021/03/07 00:36:19;;;;;;;6.13;4.33;;;;;;;1.31;100.00;96139.50;5015247;28;20286;-86
2021/03/07 00:38:46;;;;;;;4.13;3.80;;;;;;;1.28;100.00;96104.31;5014927;28;20257;-86
2021/03/07 00:41:13;;;;;;;7.90;4.40;;;;;;;1.19;100.00;96115.31;5014698;28;20338;-86
2021/03/07 00:43:40;;;;;;;7.43;5.17;;;;;;;1.29;100.00;96142.22;5014697;28;20199;-86
2021/03/07 00:46:07;;;;;;;5.80;4.67;;;;;;;1.18;100.00;96184.38;5014458;28;20613;-86
2021/03/07 00:48:34;;;;;;;4.53;4.13;;;;;;;1.39;100.00;96176.09;5014557;28;20219;-85
2021/03/07 00:51:01;;;;;;;5.70;4.17;;;;;;;1.27;100.00;96207.97;5014977;28;20211;-86
2021/03/07 00:53:28;;;;;;;5.23;4.73;;;;;;;1.31;100.00;96212.00;5014453;28;20225;-86
2021/03/07 00:55:56;;;;;;;5.27;4.30;;;;;;;1.52;100.00;96189.00;5014650;28;20226;-85
2021/03/07 00:58:23;;;;;;;4.33;3.93;;;;;;;1.58;100.00;96199.78;5014442;28;20199;-86
2021/03/07 01:00:51;;;;;;;4.83;4.40;;;;;;;1.45;100.00;96211.91;5015009;28;20298;-86
2021/03/07 01:03:18;;;;;;;4.13;3.77;;;;;;;1.46;100.00;96213.59;5014296;28;20239;-85
2021/03/07 01:05:45;;;;;;;4.60;4.20;;;;;;;1.58;100.00;96233.47;5014319;28;20227;-86
2021/03/07 01:08:12;;;;;;;4.13;3.77;;;;;;;1.43;100.00;96257.81;5014401;28;20199;-86
2021/03/07 01:10:40;;;;;;;5.27;4.50;;;;;;;1.31;100.00;96243.09;5014749;28;20298;-86
2021/03/07 01:13:11;;;;;;;5.87;4.17;;;;;;;1.47;100.00;96215.22;5014258;28;20199;-86
2021/03/07 01:15:38;;;;;;;4.57;4.17;;;;;;;1.42;100.00;96233.69;5014127;28;20326;-86
2021/03/07 01:18:06;;;;;;;4.07;3.70;;;;;;;1.51;100.00;96228.81;5014041;28;20195;-86
2021/03/07 01:20:33;;;;;;;5.00;4.60;;;;;;;1.54;100.00;96239.78;5014994;28;20670;-86
2021/03/07 01:23:00;;;;;;;8.90;6.37;;;;;;;1.63;100.00;96262.47;5014488;28;20282;-86
2021/03/07 01:25:31;;;;;;;5.23;4.83;;;;;;;1.51;100.00;96249.53;5013883;28;20270;-86
2021/03/07 01:27:58;;;;;;;4.33;3.93;;;;;;;1.63;100.00;96204.66;5014051;28;20684;-86
2021/03/07 01:30:27;;;;;;;4.80;4.40;;;;;;;1.54;100.00;96200.94;5013845;28;20195;-85
2021/03/07 01:32:54;;;;;;;4.90;4.40;;;;;;;1.58;100.00;96212.72;5013686;28;20199;-86
2021/03/07 01:35:21;;;;;;;4.97;4.47;;;;;;;1.52;100.00;96197.59;5013824;28;20286;-86
2021/03/07 01:37:49;;;;;;;5.40;4.27;;;;;;;1.52;100.00;96168.28;5014147;28;20296;-86
2021/03/07 01:40:20;;;;;;;3.70;3.40;;;;;;;1.61;100.00;96206.53;5013948;28;20211;-86
2021/03/07 01:42:48;;;;;;;4.13;3.73;;;;;;;1.71;100.00;96243.00;5013834;28;20191;-86
2021/03/07 01:45:19;;;;;;;5.13;4.73;;;;;;;1.51;100.00;96226.22;5012680;28;20233;-86
2021/03/07 01:47:52;;;;;;;3.97;3.67;;;;;;;1.54;100.00;96206.09;5013400;28;20325;-86
2021/03/07 01:50:20;;;;;;;4.53;4.13;;;;;;;1.45;100.00;96208.50;5013467;28;20191;-86
2021/03/07 01:52:48;;;;;;;3.87;3.57;;;;;;;1.48;100.00;96237.59;5013611;28;20195;-86
2021/03/07 01:55:18;;;;;;;4.03;3.70;;;;;;;1.45;100.00;96224.84;5013046;28;20199;-86
2021/03/07 01:57:47;;;;;;;4.20;3.80;;;;;;;1.51;100.00;96226.22;5013578;28;20207;-86
2021/03/07 02:00:16;;;;;;;4.00;3.70;;;;;;;1.56;100.00;96199.06;5013527;28;20195;-86
2021/03/07 02:02:43;;;;;;;4.20;3.80;;;;;;;1.33;100.00;96203.22;5013091;28;20195;-86
2021/03/07 02:05:12;;;;;;;4.30;3.90;;;;;;;1.38;100.00;96154.50;5013213;28;20227;-86
2021/03/07 02:07:40;;;;;;;6.80;4.37;;;;;;;1.36;100.00;96176.28;5013212;28;20199;-86
2021/03/07 02:10:10;;;;;;;3.53;3.23;;;;;;;1.51;100.00;96221.03;5013543;28;20199;-86
2021/03/07 02:12:38;;;;;;;4.20;3.80;;;;;;;1.44;100.00;96215.44;5013239;28;20203;-86
2021/03/07 02:15:08;;;;;;;4.93;4.20;;;;;;;1.47;100.00;96202.28;5013090;28;20210;-86
2021/03/07 02:17:36;;;;;;;3.80;3.50;;;;;;;1.49;100.00;96213.38;5013099;28;20203;-86
2021/03/07 02:20:03;;;;;;;4.90;3.33;;;;;;;1.41;100.00;96206.09;5013078;28;20227;-86
2021/03/07 02:22:36;;;;;;;4.10;3.80;;;;;;;1.39;100.00;96201.97;5013162;28;20199;-86
2021/03/07 02:25:06;;;;;;;4.33;3.93;;;;;;;1.42;100.00;96196.56;5012950;28;20227;-86
2021/03/07 02:27:34;;;;;;;4.37;4.07;;;;;;;1.46;100.00;96200.63;5013211;28;20246;-86
2021/03/07 02:30:01;;;;;;;5.10;4.70;;;;;;;1.08;100.00;96214.38;5012775;28;20207;-85
2021/03/07 02:32:29;;;;;;;6.33;5.47;;;;;;;1.11;100.00;96146.03;5012538;28;20239;-86
2021/03/07 02:35:02;;;;;;;6.10;5.00;;;;;;;1.23;100.00;96110.75;5012974;28;20196;-85
2021/03/07 02:37:31;;;;;;;5.80;5.30;;;;;;;1.35;100.00;96152.16;5013320;28;20239;-86
2021/03/07 02:39:59;;;;;;;4.10;3.70;;;;;;;1.42;100.00;96174.13;5012712;28;20249;-86
2021/03/07 02:42:29;;;;;;;4.43;4.03;;;;;;;1.42;100.00;96256.13;5012660;28;20195;-86
2021/03/07 02:45:00;;;;;;;5.10;3.77;;;;;;;1.36;100.00;96300.59;5012566;28;20219;-85
2021/03/07 02:47:31;;;;;;;9.33;7.47;;;;;;;1.32;100.00;96371.66;5012570;28;20235;-86
2021/03/07 02:50:02;;;;;;;19.13;14.13;;;;;;;1.33;100.00;96352.59;5012794;28;20191;-86
2021/03/07 02:52:29;;;;;;;34.40;24.77;;;;;;;1.29;100.00;96370.06;5012450;28;20188;-85
2021/03/07 02:54:58;;;;;;;30.10;23.73;;;;;;;1.31;100.00;96350.06;5012751;28;20586;-86
2021/03/07 02:57:28;;;;;;;15.37;13.00;;;;;;;1.21;100.00;96387.00;5012306;28;20290;-86
2021/03/07 02:59:57;;;;;;;8.57;7.60;;;;;;;1.28;100.00;96381.38;5012963;28;20201;-86
2021/03/07 03:02:28;;;;;;;7.97;6.50;;;;;;;1.31;100.00;96426.94;5012357;28;20290;-86
2021/03/07 03:04:56;;;;;;;5.73;5.13;;;;;;;1.21;100.00;96416.31;5012664;28;20207;-86
2021/03/07 03:07:25;;;;;;;5.43;5.03;;;;;;;1.33;100.00;96407.78;5012845;28;20203;-86
2021/03/07 03:09:53;;;;;;;5.17;4.67;;;;;;;1.21;100.00;96455.16;5012500;28;20257;-86
2021/03/07 03:12:22;;;;;;;4.50;4.10;;;;;;;1.38;100.00;96438.56;5012511;28;20754;-86
2021/03/07 03:14:50;;;;;;;4.57;4.17;;;;;;;1.13;100.00;96413.41;5012549;28;20692;-86
2021/03/07 03:17:17;;;;;;;4.87;4.33;;;;;;;0.84;100.00;96355.72;5012645;28;20768;-86
2021/03/07 03:19:46;;;;;;;4.70;4.30;;;;;;;0.91;100.00;96274.19;5012421;28;20207;-86
2021/03/07 03:22:13;;;;;;;4.03;3.73;;;;;;;1.05;100.00;96292.25;5012253;28;20254;-86
2021/03/07 03:24:41;;;;;;;3.57;3.27;;;;;;;1.16;100.00;96315.66;5012301;28;20290;-86
2021/03/07 03:27:09;;;;;;;4.23;3.40;;;;;;;1.08;100.00;96363.69;5012582;28;20234;-87
2021/03/07 03:29:36;;;;;;;3.40;3.07;;;;;;;0.91;100.00;96403.56;5012759;28;20273;-86
2021/03/07 03:32:05;;;;;;;3.33;3.13;;;;;;;0.86;100.00;96439.25;5012763;28;20685;-87
2021/03/07 03:34:32;;;;;;;4.67;3.30;;;;;;;0.92;100.00;96441.47;5012454;28;20338;-87
2021/03/07 03:36:58;;;;;;;3.27;2.97;;;;;;;0.80;100.00;96499.16;5013052;28;20584;-87
2021/03/07 03:39:28;;;;;;;3.17;2.90;;;;;;;0.84;100.00;96501.44;5013046;28;20199;-87
2021/03/07 03:42:00;;;;;;;4.93;3.17;;;;;;;0.87;100.00;96505.63;5012755;28;20577;-88
2021/03/07 03:44:33;;;;;;;3.20;2.90;;;;;;;0.74;100.00;96517.63;5012881;28;20612;-88
2021/03/07 03:47:01;;;;;;;3.20;2.83;;;;;;;0.68;100.00;96524.00;5012383;28;20382;-87
2021/03/07 03:49:33;;;;;;;3.23;2.93;;;;;;;0.71;100.00;96534.97;5012498;28;20331;-88
2021/03/07 03:52:02;;;;;;;3.00;2.80;;;;;;;0.74;100.00;96562.44;5012887;28;20184;-88
2021/03/07 03:54:32;;;;;;;8.77;5.90;;;;;;;0.66;100.00;96562.06;5013128;28;20287;-87
2021/03/07 03:57:00;;;;;;;31.53;18.60;;;;;;;0.76;100.00;96541.63;5012485;28;20699;-89
2021/03/07 03:59:30;;;;;;;20.83;12.63;;;;;;;0.66;100.00;96555.13;5012449;28;20192;-90
2021/03/07 04:01:59;;;;;;;22.03;13.03;;;;;;;0.57;100.00;96539.31;5012967;28;20201;-89
2021/03/07 04:04:30;;;;;;;44.10;28.70;;;;;;;0.28;100.00;96505.66;5012399;28;20673;-89
2021/03/07 04:06:58;;;;;;;68.87;39.10;;;;;;;0.14;100.00;96448.75;5012638;28;20194;-89
2021/03/07 04:09:26;;;;;;;72.43;42.00;;;;;;;0.32;100.00;96427.00;5015246;28;20200;-89
2021/03/07 04:11:53;;;;;;;20.13;13.90;;;;;;;0.31;100.00;96434.84;5015859;28;20209;-89
2021/03/07 04:14:22;;;;;;;7.77;4.93;;;;;;;0.20;100.00;96456.97;5015867;28;20246;-89
2021/03/07 04:16:49;;;;;;;14.87;10.10;;;;;;;0.23;100.00;96505.09;5016229;28;20204;-89
2021/03/07 04:19:17;;;;;;;9.67;7.50;;;;;;;0.27;100.00;96522.09;5015742;28;20199;-89
2021/03/07 04:21:46;;;;;;;9.53;6.73;;;;;;;-0.22;100.00;96536.97;5016512;28;20281;-90
2021/03/07 04:24:13;;;;;;;11.53;7.83;;;;;;;-0.48;100.00;96407.59;5015634;28;20286;-89
2021/03/07 04:26:41;;;;;;;8.70;7.40;;;;;;;-0.19;100.00;96230.25;5015595;28;20219;-89
2021/03/07 04:29:08;;;;;;;9.60;7.33;;;;;;;-0.25;100.00;96195.28;5015896;28;20278;-89
2021/03/07 04:31:35;;;;;;;12.87;7.50;;;;;;;-0.26;100.00;96141.97;5015822;28;20231;-89
2021/03/07 04:34:02;;;;;;;6.70;5.63;;;;;;;0.03;100.00;96152.22;5015820;28;20284;-89
2021/03/07 04:36:29;;;;;;;7.07;6.00;;;;;;;0.30;100.00;96216.03;5015511;28;20235;-89
2021/03/07 04:38:58;;;;;;;5.83;5.23;;;;;;;0.17;100.00;96296.09;5015659;28;20238;-90
2021/03/07 04:41:25;;;;;;;4.40;4.00;;;;;;;-0.06;100.00;96324.16;5015560;28;20692;-89
2021/03/07 04:43:56;;;;;;;4.63;4.23;;;;;;;-0.05;100.00;96345.66;5015643;28;20195;-90
2021/03/07 04:46:24;;;;;;;24.93;17.00;;;;;;;-0.11;100.00;96352.00;5015396;28;20326;-90
2021/03/07 04:48:54;;;;;;;29.07;19.30;;;;;;;0.09;100.00;96334.50;5015691;28;20199;-90
2021/03/07 04:51:21;;;;;;;42.30;31.63;;;;;;;-0.24;100.00;96345.94;5015222;28;20739;-90
2021/03/07 04:53:48;;;;;;;30.17;22.50;;;;;;;-0.34;100.00;96301.75;5015501;28;20638;-90
2021/03/07 04:56:16;;;;;;;13.67;10.67;;;;;;;-0.31;100.00;96275.72;5015408;28;20279;-91
2021/03/07 04:58:42;;;;;;;23.40;15.23;;;;;;;-0.45;100.00;96259.38;5015168;28;20331;-90
2021/03/07 05:01:10;;;;;;;16.17;11.90;;;;;;;-0.41;100.00;96202.31;5015016;28;20199;-90
2021/03/07 05:03:37;;;;;;;13.30;9.83;;;;;;;-0.50;100.00;96164.13;5015141;28;20214;-90
2021/03/07 05:06:04;;;;;;;17.83;9.43;;;;;;;-0.48;100.00;96167.47;5015047;28;20299;-90
2021/03/07 05:08:31;;;;;;;12.93;10.40;;;;;;;-0.42;100.00;96161.91;5014956;28;20200;-90
2021/03/07 05:10:58;;;;;;;15.53;14.03;;;;;;;-0.42;100.00;96194.66;5015272;28;20305;-91
2021/03/07 05:13:26;;;;;;;28.60;24.07;;;;;;;-0.10;100.00;96214.19;5014889;28;20223;-92
2021/03/07 05:15:53;;;;;;;13.30;11.20;;;;;;;-0.18;100.00;96247.38;5014809;28;20669;-93
2021/03/07 05:18:20;;;;;;;17.37;9.57;;;;;;;-0.06;100.00;96222.56;5014719;28;20294;-95
2021/03/07 05:20:47;;;;;;;9.17;7.87;;;;;;;-0.01;100.00;96260.09;5015092;28;20282;-95
2021/03/07 05:23:14;;;;;;;9.77;7.53;;;;;;;-0.16;100.00;96286.88;5014790;28;20199;-93
2021/03/07 05:25:41;;;;;;;25.67;17.20;;;;;;;-0.27;100.00;96260.88;5014664;28;20227;-95
2021/03/07 05:28:08;;;;;;;27.73;19.73;;;;;;;-0.17;100.00;96220.66;5014875;28;20195;-94
2021/03/07 05:30:37;;;;;;;27.27;18.57;;;;;;;-0.25;100.00;96220.28;5014490;28;20661;-93
2021/03/07 05:33:04;;;;;;;17.10;13.50;;;;;;;-0.65;100.00;96214.13;5014521;28;20203;-94
2021/03/07 05:35:31;;;;;;;14.23;12.40;;;;;;;-0.69;100.00;96171.31;5014747;28;20207;-93
2021/03/07 05:37:58;;;;;;;19.40;14.23;;;;;;;-0.57;100.00;96132.69;5014524;28;20195;-93
2021/03/07 05:40:25;;;;;;;18.30;16.23;;;;;;;-0.29;100.00;96124.06;5014745;28;20195;-94
2021/03/07 05:42:52;;;;;;;24.83;17.77;;;;;;;-0.05;100.00;96131.22;5014509;28;20192;-93
2021/03/07 05:45:19;;;;;;;23.43;17.30;;;;;;;0.12;100.00;96156.00;5016440;28;20223;-94
2021/03/07 05:47:47;;;;;;;18.83;14.60;;;;;;;0.16;100.00;96206.56;5022438;28;20245;-91
2021/03/07 05:50:14;;;;;;;14.07;12.23;;;;;;;0.18;100.00;96230.56;5018233;28;20668;-93
2021/03/07 05:52:41;;;;;;;10.67;7.07;;;;;;;0.36;100.00;96319.06;5014512;28;20199;-91
2021/03/07 05:55:10;;;;;;;7.57;5.43;;;;;;;0.39;100.00;96396.44;5014061;28;20199;-91
2021/03/07 05:57:37;;;;;;;6.23;4.37;;;;;;;0.59;100.00;96424.50;5013993;28;20199;-91
2021/03/07 06:00:06;;;;;;;4.87;4.43;;;;;;;0.64;100.00;96475.94;5013859;28;20806;-91
2021/03/07 06:02:33;;;;;;;5.13;4.67;;;;;;;0.63;100.00;96506.16;4996236;28;20196;-89
2021/03/07 06:05:01;;;;;;;5.67;4.00;;;;;;;0.72;100.00;96530.63;5013648;28;20739;-90
2021/03/07 06:07:27;;;;;;;5.77;5.10;;;;;;;0.81;100.00;96555.16;5014217;28;20195;-89
2021/03/07 06:10:16;;;;;;;7.43;6.73;;;;;;;0.82;100.00;96562.81;5013742;28;20199;-90
2021/03/07 06:12:56;;;;;;;204.23;99.37;;;;;;;1.07;100.00;96589.78;5013728;28;20202;-89
2021/03/07 06:15:23;;;;;;;27.73;17.93;;;;;;;0.85;100.00;96673.06;5013496;28;20230;-89
2021/03/07 06:17:50;;;;;;;8.43;7.13;;;;;;;0.76;100.00;96689.09;5013798;28;20210;-87
2021/03/07 06:20:18;;;;;;;8.43;6.83;;;;;;;0.80;100.00;96685.44;5013605;28;20294;-88
2021/03/07 06:22:54;;;;;;;52.57;37.47;;;;;;;1.07;100.00;96670.88;5010369;28;20243;-87
2021/03/07 06:25:22;;;;;;;17.93;10.90;;;;;;;1.40;100.00;96722.44;5012890;28;20227;-90
2021/03/07 06:27:50;;;;;;;13.53;8.80;;;;;;;1.28;100.00;96743.03;5012942;28;20204;-90
2021/03/07 06:30:18;;;;;;;7.70;6.13;;;;;;;1.25;100.00;96751.84;5013221;28;20692;-89
2021/03/07 06:32:51;;;;;;;5.90;5.00;;;;;;;1.26;100.00;96731.94;5011995;28;20195;-91
2021/03/07 06:35:21;;;;;;;8.63;6.73;;;;;;;1.40;100.00;96709.47;5012113;28;20649;-87
2021/03/07 06:37:57;;;;;;;11.43;6.20;;;;;;;1.61;100.00;96691.00;5012614;28;20657;-88
2021/03/07 06:40:26;;;;;;;9.57;8.03;;;;;;;2.07;100.00;96683.78;5012965;28;20658;-87
2021/03/07 06:42:53;;;;;;;11.53;6.30;;;;;;;2.41;100.00;96724.94;5012884;28;20196;-87
2021/03/07 06:45:21;;;;;;;7.03;5.20;;;;;;;2.69;100.00;96976.59;5013025;28;20223;-88
2021/03/07 06:47:56;;;;;;;4.93;4.40;;;;;;;2.96;100.00;97035.56;5012637;28;20239;-87
2021/03/07 06:50:24;;;;;;;9.93;4.80;;;;;;;2.95;100.00;97096.22;5013148;28;20633;-89
2021/03/07 06:52:53;;;;;;;6.10;4.80;;;;;;;3.04;100.00;97150.19;5013060;28;20231;-88
2021/03/07 06:55:22;;;;;;;4.80;4.30;;;;;;;2.41;100.00;97223.88;5012950;28;20204;-89
2021/03/07 06:57:49;;;;;;;5.60;3.97;;;;;;;2.86;100.00;97238.63;5013066;28;20195;-87
2021/03/07 07:00:17;;;;;;;3.77;3.47;;;;;;;2.84;100.00;97276.84;5013135;28;20665;-88
2021/03/07 07:03:05;;;;;;;5.20;3.90;;;;;;;3.15;100.00;97284.63;5013081;28;20206;-88
2021/03/07 07:05:38;;;;;;;8.00;6.83;;;;;;;3.45;100.00;97301.06;5011573;28;20224;-84
2021/03/07 07:08:05;;;;;;;4.83;4.23;;;;;;;3.58;100.00;97348.81;5012355;28;20195;-90
2021/03/07 07:10:55;;;;;;;4.17;3.77;;;;;;;3.83;100.00;97356.94;5013310;28;20267;-89
2021/03/07 07:13:23;;;;;;;5.67;4.40;;;;;;;3.96;100.00;97379.53;5012838;28;20667;-89
2021/03/07 07:16:00;;;;;;;6.93;5.73;;;;;;;4.20;100.00;97381.63;5013063;28;20273;-88
2021/03/07 07:18:29;;;;;;;20.00;13.83;;;;;;;4.46;100.00;97383.47;5012834;28;20191;-89
2021/03/07 07:20:57;;;;;;;12.77;7.70;;;;;;;4.62;100.00;97392.97;5012807;28;20291;-89
2021/03/07 07:23:25;;;;;;;4.73;4.27;;;;;;;4.09;100.00;97413.47;5012815;28;20223;-89
2021/03/07 07:25:53;;;;;;;4.13;3.73;;;;;;;4.47;100.00;97416.41;5012786;28;20244;-89
2021/03/07 07:28:20;;;;;;;4.13;3.63;;;;;;;4.94;100.00;97394.38;5012901;28;20199;-89
2021/03/07 07:30:53;;;;;;;3.77;3.37;;;;;;;4.79;100.00;97421.41;5012897;28;20257;-89
2021/03/07 07:33:33;;;;;;;7.47;6.57;;;;;;;5.25;100.00;97410.69;5012935;28;20207;-90
2021/03/07 07:36:02;;;;;;;6.17;5.20;;;;;;;5.19;100.00;97418.91;5012888;28;20203;-90
2021/03/07 07:38:36;;;;;;;4.93;4.27;;;;;;;5.18;100.00;97401.59;5012542;28;20199;-89
2021/03/07 07:41:03;;;;;;;3.77;3.47;;;;;;;5.03;100.00;97420.81;5012257;28;20685;-90
2021/03/07 07:43:50;;;;;;;4.67;4.27;;;;;;;4.22;100.00;97411.81;5013489;28;20242;-90
2021/03/07 07:46:17;;;;;;;4.60;4.07;;;;;;;4.61;100.00;97405.16;5016354;28;20223;-90
2021/03/07 07:48:44;;;;;;;4.30;3.87;;;;;;;4.62;100.00;97409.41;5016860;28;20557;-89
2021/03/07 07:51:34;;;;;;;4.20;3.80;;;;;;;4.79;100.00;97400.56;5016547;28;20631;-90
2021/03/07 07:54:02;;;;;;;4.20;3.33;;;;;;;5.61;100.00;97393.63;5016478;28;20222;-90
2021/03/07 07:56:43;;;;;;;3.70;3.33;;;;;;;6.06;100.00;97394.16;5016427;28;20265;-90
2021/03/07 07:59:11;;;;;;;3.33;2.80;;;;;;;6.14;100.00;97420.59;5016418;28;20266;-89
2021/03/07 08:01:54;;;;;;;5.30;4.23;;;;;;;6.22;100.00;97413.06;5015929;28;20235;-90
2021/03/07 08:04:37;;;;;;;8.27;3.93;;;;;;;4.50;100.00;97411.00;5016396;28;20195;-89
2021/03/07 08:07:09;;;;;;;6.70;3.97;;;;;;;4.64;100.00;97389.34;5016192;28;20318;-89
2021/03/07 08:09:45;;;;;;;4.70;4.20;;;;;;;4.57;100.00;97385.41;5016088;28;20687;-90
2021/03/07 08:12:49;;;;;;;4.50;4.10;;;;;;;4.83;100.00;97394.22;5016169;28;20274;-90
2021/03/07 08:15:41;;;;;;;4.37;3.53;;;;;;;4.73;100.00;97390.53;5016014;28;20248;-89
2021/03/07 08:18:09;;;;;;;5.00;4.43;;;;;;;4.38;100.00;97377.91;5015996;28;20712;-90
2021/03/07 08:21:01;;;;;;;5.87;4.13;;;;;;;3.96;100.00;97368.31;5015783;28;20286;-89
2021/03/07 08:23:29;;;;;;;3.93;3.00;;;;;;;3.74;100.00;97342.72;5015748;28;20203;-89
2021/03/07 08:26:01;;;;;;;4.93;3.53;;;;;;;3.75;100.00;97339.19;5015840;28;20285;-89
2021/03/07 08:28:44;;;;;;;6.83;3.53;;;;;;;3.90;100.00;97340.88;5016030;28;20242;-89
2021/03/07 08:31:37;;;;;;;3.53;2.83;;;;;;;4.35;100.00;97343.41;5015507;28;20286;-89
2021/03/07 08:34:24;;;;;;;5.27;3.70;;;;;;;4.25;100.00;97353.53;4987899;28;20203;-90
2021/03/07 08:37:04;;;;;;;2.93;2.63;;;;;;;4.14;100.00;97328.16;5015453;28;20227;-89
2021/03/07 08:39:32;;;;;;;5.53;3.00;;;;;;;4.23;100.00;97312.00;5015620;28;20602;-89
2021/03/07 08:42:02;;;;;;;6.00;3.77;;;;;;;4.57;100.00;97311.69;5015598;28;20195;-89
2021/03/07 08:44:30;;;;;;;2.53;2.33;;;;;;;4.67;100.00;97325.78;5015260;28;20728;-89
2021/03/07 08:46:58;;;;;;;5.23;3.43;;;;;;;4.60;100.00;97303.69;5015027;28;20239;-89
2021/03/07 08:49:28;;;;;;;8.20;5.10;;;;;;;4.61;100.00;97297.56;5015111;28;20291;-89
2021/03/07 08:52:00;;;;;;;5.63;4.40;;;;;;;4.62;100.00;97320.06;5015271;28;20645;-88
2021/03/07 08:54:35;;;;;;;5.73;3.93;;;;;;;4.67;100.00;97321.41;5014617;28;20223;-89
2021/03/07 08:57:07;;;;;;;5.13;3.33;;;;;;;4.18;100.00;97311.44;5015778;28;20558;-90
2021/03/07 08:59:37;;;;;;;6.90;5.37;;;;;;;4.16;100.00;97307.28;5015225;28;20199;-90
2021/03/07 09:02:10;;;;;;;8.90;5.50;;;;;;;4.22;100.00;97305.13;5015468;28;20228;-89
2021/03/07 09:04:40;;;;;;;6.07;4.37;;;;;;;4.31;100.00;97298.53;5015265;28;20199;-89
2021/03/07 09:07:07;;;;;;;6.60;4.43;;;;;;;4.24;100.00;97302.44;5014617;28;20219;-89
2021/03/07 09:09:41;;;;;;;6.03;4.27;;;;;;;4.25;100.00;97302.31;5014994;28;20669;-89
2021/03/07 09:12:09;;;;;;;8.83;5.53;;;;;;;4.15;100.00;97282.16;5014632;28;20188;-89
2021/03/07 09:14:38;;;;;;;10.57;5.83;;;;;;;4.24;100.00;97268.59;5014624;28;20211;-90
2021/03/07 09:17:06;;;;;;;5.87;4.27;;;;;;;4.07;100.00;97256.63;5014443;28;20191;-90
2021/03/07 09:19:35;;;;;;;4.07;3.53;;;;;;;4.20;100.00;97273.16;5014519;28;20283;-90
2021/03/07 09:22:23;;;;;;;8.90;4.80;;;;;;;3.91;100.00;97274.94;5014258;28;20281;-89
2021/03/07 09:25:05;;;;;;;20.10;14.10;;;;;;;3.93;100.00;97280.88;5014308;28;20223;-89
2021/03/07 09:27:33;;;;;;;14.20;11.33;;;;;;;4.16;100.00;97278.66;5014642;28;20188;-89
2021/03/07 09:30:10;;;;;;;12.63;9.20;;;;;;;4.11;100.00;97289.34;5014439;28;20685;-89
2021/03/07 09:32:38;;;;;;;7.00;4.80;;;;;;;4.10;100.00;97287.66;5014561;28;20656;-87
2021/03/07 09:35:27;;;;;;;3.90;3.33;;;;;;;4.44;100.00;97286.44;5014103;28;20684;-87
2021/03/07 09:37:59;;;;;;;3.93;3.50;;;;;;;4.67;100.00;97289.34;5010384;28;20210;-86
2021/03/07 09:40:35;;;;;;;8.77;6.77;;;;;;;4.51;100.00;97300.72;5014482;28;20206;-86
2021/03/07 09:43:04;;;;;;;47.63;31.43;;;;;;;4.27;100.00;97305.69;5014287;28;20222;-87
2021/03/07 09:45:32;;;;;;;6.53;5.87;;;;;;;4.28;100.00;97299.53;5013864;28;20303;-87
2021/03/07 09:47:59;;;;;;;16.40;14.20;;;;;;;4.18;100.00;97295.84;5013885;28;20708;-86
2021/03/07 09:50:41;;;;;;;8.73;5.53;;;;;;;4.55;100.00;97283.16;5013882;28;20233;-86
2021/03/07 09:53:08;;;;;;;5.40;4.90;;;;;;;5.59;100.00;97280.75;5013884;28;20199;-87
2021/03/07 09:55:37;;;;;;;6.07;4.50;;;;;;;7.27;100.00;97310.72;5014409;28;20262;-86
2021/03/07 09:58:05;;;;;;;5.83;3.97;;;;;;;8.79;100.00;97320.13;5013829;28;20605;-87
2021/03/07 10:00:40;;;;;;;6.10;4.47;;;;;;;9.36;100.00;97326.06;5018605;28;20230;-87
2021/03/07 10:03:19;;;;;;;16.43;12.53;;;;;;;8.92;100.00;97328.69;5015718;28;20199;-87
2021/03/07 10:06:04;;;;;;;11.07;8.83;;;;;;;9.09;100.00;97329.94;5013927;28;20207;-88
2021/03/07 10:08:31;;;;;;;7.37;5.67;;;;;;;8.96;100.00;97331.88;5014121;28;20195;-88
2021/03/07 10:11:09;;;;;;;4.50;3.13;;;;;;;9.25;100.00;97330.41;5013992;28;20206;-88
2021/03/07 10:13:36;;;;;;;6.00;4.37;;;;;;;8.42;100.00;97317.78;5013867;28;20700;-88
2021/03/07 10:16:05;;;;;;;4.90;3.57;;;;;;;6.17;100.00;97302.91;5013973;28;20196;-88
2021/03/07 10:18:32;;;;;;;3.83;3.23;;;;;;;5.69;100.00;97292.25;5013565;28;20215;-87
2021/03/07 10:20:59;;;;;;;4.47;4.00;;;;;;;6.98;100.00;97291.09;5013572;28;20249;-87
2021/03/07 10:23:27;;;;;;;4.17;3.87;;;;;;;6.24;100.00;97301.56;5013371;28;20203;-87
2021/03/07 10:25:54;;;;;;;5.77;4.40;;;;;;;6.15;100.00;97295.19;5013495;28;20229;-88
2021/03/07 10:28:23;;;;;;;4.87;4.17;;;;;;;5.58;100.00;97303.41;5013398;28;20290;-87
2021/03/07 10:30:52;;;;;;;6.33;3.53;;;;;;;5.45;100.00;97285.13;5013674;28;20289;-88
2021/03/07 10:33:20;;;;;;;4.30;3.90;;;;;;;6.11;100.00;97274.63;5013195;28;20257;-88
2021/03/07 10:36:05;;;;;;;5.50;4.90;;;;;;;6.05;100.00;97272.44;5013280;28;20206;-88
2021/03/07 10:38:33;;;;;;;7.53;4.03;;;;;;;6.00;100.00;97264.94;5013115;28;20198;-89
2021/03/07 10:41:16;;;;;;;4.13;3.73;;;;;;;5.86;100.00;97265.00;5013382;28;20736;-88
2021/03/07 10:43:46;;;;;;;6.27;5.53;;;;;;;6.01;100.00;97265.75;5013650;28;20268;-88
2021/03/07 10:46:24;;;;;;;4.00;3.60;;;;;;;6.10;100.00;97265.13;5012936;28;20333;-88
2021/03/07 10:48:53;;;;;;;4.47;3.53;;;;;;;5.33;100.00;97269.44;5013110;28;20188;-88
2021/03/07 10:51:20;;;;;;;4.30;3.40;;;;;;;5.87;100.00;97257.06;5013002;28;20200;-88
2021/03/07 10:53:47;;;;;;;3.40;3.13;;;;;;;5.71;100.00;97244.25;5013139;28;20269;-87
2021/03/07 10:56:14;;;;;;;4.57;3.83;;;;;;;5.64;100.00;97226.50;5012919;28;20274;-87
2021/03/07 10:58:40;;;;;;;8.17;4.33;;;;;;;5.78;100.00;97223.78;5012833;28;20274;-87
2021/03/07 11:01:14;;;;;;;3.90;3.60;;;;;;;5.48;100.00;97221.50;5012929;28;20199;-88
2021/03/07 11:03:40;;;;;;;3.63;3.33;;;;;;;6.51;100.00;97225.66;5013489;28;20257;-88
2021/03/07 11:06:08;;;;;;;4.23;3.53;;;;;;;8.02;100.00;97217.88;5013064;28;20636;-88
2021/03/07 11:08:35;;;;;;;4.83;4.27;;;;;;;8.00;100.00;97238.09;5012781;28;20748;-88
2021/03/07 11:11:01;;;;;;;6.47;4.67;;;;;;;8.76;100.00;97223.38;5012900;28;20210;-88
2021/03/07 11:13:28;;;;;;;10.10;8.60;;;;;;;8.51;100.00;97224.50;5012587;28;20195;-88
2021/03/07 11:15:55;;;;;;;10.70;6.80;;;;;;;8.58;100.00;97226.50;5012969;28;20257;-88
2021/03/07 11:18:23;;;;;;;6.07;4.87;;;;;;;8.84;100.00;97220.16;5015580;28;20210;-88
2021/03/07 11:20:50;;;;;;;29.50;22.13;;;;;;;7.15;100.00;97220.13;5016954;28;20246;-88
2021/03/07 11:23:17;;;;;;;42.60;28.87;;;;;;;6.49;100.00;97198.00;5017029;28;20195;-88
2021/03/07 11:25:44;;;;;;;5.97;4.50;;;;;;;6.71;100.00;97198.09;5016563;28;20747;-88
2021/03/07 11:28:11;;;;;;;4.60;4.20;;;;;;;6.01;100.00;97192.69;5016574;28;20290;-89
2021/03/07 11:30:38;;;;;;;6.40;5.30;;;;;;;6.06;100.00;97178.38;5016644;28;20238;-88
2021/03/07 11:33:05;;;;;;;4.40;3.87;;;;;;;6.13;100.00;97166.56;5016409;28;20241;-88
2021/03/07 11:35:33;;;;;;;18.20;13.73;;;;;;;6.22;100.00;97185.94;5016747;28;20233;-87
2021/03/07 11:38:00;;;;;;;7.83;7.03;;;;;;;6.23;100.00;97176.34;5016532;28;20199;-89
2021/03/07 11:40:27;;;;;;;16.43;14.60;;;;;;;6.19;100.00;97173.13;5016740;28;20622;-89
2021/03/07 11:42:54;;;;;;;10.77;8.70;;;;;;;5.91;100.00;97168.97;5016435;28;20187;-86